AE-0002 weather

Burj al Arab Resort Helipad
Dubai, Dubai Emirate, United Arab Emirates

Public forecast

Using degrees Celsius for public forecast. Weather courtesy of forecast.io.

Closest aviation weather report (METAR) to Burj al Arab Resort Helipad

Closest report is Dubai International Airport, 11.8 nm (21.9 km) NE. Retrieved 2020/07/14 22:00 UTC (36 minutes ago):

OMDB 142200Z 09003KT CAVOK 37/22 Q0996 NOSIG

Closest aviation forecast (TAF) to Burj al Arab Resort Helipad

Closest forecast is Dubai International Airport, 11.8 nm (21.9 km) NE. Retrieved 2020/07/14 18:00 UTC (5 hours ago):

TAF OMDB 141653Z 1418/1600 13005KT CAVOK BECMG 1508/1510 33012KT BECMG 1517/1519 06005KT